Ville Platte, Louisiana
Current Conditions -  °F | °C
As of 5:15 AM on Monday 22 Dec 2014 (Local Time) from KOPL Reporting Station
Haze Haze  
Wind Chill: 51°   Ceiling: 200
Heat Index: 51°   Visibility: 1mi
Dew Point: 50°   Wind: 5mph
Humidity: 98%   Direction: 130°SE
Pressure: 29.83"   Gusts: NA
Location:  30.69°N, 92.28°W
Report Text: KOPL 221115Z AUTO 13004KT 1SM BR OVC002 11/10 A2983 RMK AO2 T01050102
Loading
Personal Weather Stations






























Interactive Weather Map New forecast layout! Learn more

10-Day Weather Forecast

Advertisements
Track Severe Weather on mobile